sensor_id;sensor_type;location;lat;lon;timestamp;temperature;humidity
68912;SHT31;55953;51.650;-0.522;2024-03-22T00:00:18;10.63;79.72
68912;SHT31;55953;51.650;-0.522;2024-03-22T00:03:06;10.60;79.70
68912;SHT31;55953;51.650;-0.522;2024-03-22T00:05:33;10.56;79.78
68912;SHT31;55953;51.650;-0.522;2024-03-22T00:08:01;10.53;79.87
68912;SHT31;55953;51.650;-0.522;2024-03-22T00:10:29;10.50;79.94
68912;SHT31;55953;51.650;-0.522;2024-03-22T00:12:56;10.47;79.88
68912;SHT31;55953;51.650;-0.522;2024-03-22T00:15:24;10.46;80.03
68912;SHT31;55953;51.650;-0.522;2024-03-22T00:17:52;10.43;80.05
68912;SHT31;55953;51.650;-0.522;2024-03-22T00:20:19;10.39;80.15
68912;SHT31;55953;51.650;-0.522;2024-03-22T00:22:47;10.37;80.18
68912;SHT31;55953;51.650;-0.522;2024-03-22T00:25:14;10.37;80.15
68912;SHT31;55953;51.650;-0.522;2024-03-22T00:27:42;10.34;80.02
68912;SHT31;55953;51.650;-0.522;2024-03-22T00:30:10;10.30;80.12
68912;SHT31;55953;51.650;-0.522;2024-03-22T00:32:37;10.30;80.19
68912;SHT31;55953;51.650;-0.522;2024-03-22T00:35:05;10.28;80.27
68912;SHT31;55953;51.650;-0.522;2024-03-22T00:37:33;10.25;80.22
68912;SHT31;55953;51.650;-0.522;2024-03-22T00:40:01;10.25;80.20
68912;SHT31;55953;51.650;-0.522;2024-03-22T00:42:29;10.22;80.32
68912;SHT31;55953;51.650;-0.522;2024-03-22T00:44:56;10.21;80.30
68912;SHT31;55953;51.650;-0.522;2024-03-22T00:47:25;10.19;80.29
68912;SHT31;55953;51.650;-0.522;2024-03-22T00:49:52;10.19;80.30
68912;SHT31;55953;51.650;-0.522;2024-03-22T00:52:20;10.18;80.31
68912;SHT31;55953;51.650;-0.522;2024-03-22T00:54:48;10.16;80.31
68912;SHT31;55953;51.650;-0.522;2024-03-22T00:57:15;10.15;80.40
68912;SHT31;55953;51.650;-0.522;2024-03-22T00:59:43;10.13;80.40
68912;SHT31;55953;51.650;-0.522;2024-03-22T01:02:11;10.13;80.48
68912;SHT31;55953;51.650;-0.522;2024-03-22T01:04:38;10.10;80.53
68912;SHT31;55953;51.650;-0.522;2024-03-22T01:07:06;10.06;80.73
68912;SHT31;55953;51.650;-0.522;2024-03-22T01:09:33;10.05;80.79
68912;SHT31;55953;51.650;-0.522;2024-03-22T01:12:01;10.03;80.89
68912;SHT31;55953;51.650;-0.522;2024-03-22T01:14:29;10.02;80.93
68912;SHT31;55953;51.650;-0.522;2024-03-22T01:16:56;10.00;80.88
68912;SHT31;55953;51.650;-0.522;2024-03-22T01:19:24;9.98;80.90
68912;SHT31;55953;51.650;-0.522;2024-03-22T01:21:52;9.94;80.95
68912;SHT31;55953;51.650;-0.522;2024-03-22T01:24:19;9.91;81.02
68912;SHT31;55953;51.650;-0.522;2024-03-22T01:26:47;9.90;80.95
68912;SHT31;55953;51.650;-0.522;2024-03-22T01:29:15;9.86;81.04
68912;SHT31;55953;51.650;-0.522;2024-03-22T01:31:42;9.86;81.14
68912;SHT31;55953;51.650;-0.522;2024-03-22T01:34:10;9.88;81.12
68912;SHT31;55953;51.650;-0.522;2024-03-22T01:36:37;9.90;81.13
68912;SHT31;55953;51.650;-0.522;2024-03-22T01:39:05;9.88;81.16
68912;SHT31;55953;51.650;-0.522;2024-03-22T01:41:33;9.86;81.24
68912;SHT31;55953;51.650;-0.522;2024-03-22T01:44:00;9.86;81.18
68912;SHT31;55953;51.650;-0.522;2024-03-22T01:46:28;9.88;81.11
68912;SHT31;55953;51.650;-0.522;2024-03-22T01:48:56;9.92;81.10
68912;SHT31;55953;51.650;-0.522;2024-03-22T01:51:24;9.96;81.02
68912;SHT31;55953;51.650;-0.522;2024-03-22T01:53:51;9.98;80.94
68912;SHT31;55953;51.650;-0.522;2024-03-22T01:56:20;10.01;80.81
68912;SHT31;55953;51.650;-0.522;2024-03-22T01:58:49;10.04;80.79
68912;SHT31;55953;51.650;-0.522;2024-03-22T02:01:16;10.06;80.62
68912;SHT31;55953;51.650;-0.522;2024-03-22T02:03:44;10.07;80.55
68912;SHT31;55953;51.650;-0.522;2024-03-22T02:06:12;10.08;80.45
68912;SHT31;55953;51.650;-0.522;2024-03-22T02:08:39;10.10;80.37
68912;SHT31;55953;51.650;-0.522;2024-03-22T02:11:09;10.13;80.38
68912;SHT31;55953;51.650;-0.522;2024-03-22T02:13:36;10.13;80.30
68912;SHT31;55953;51.650;-0.522;2024-03-22T02:16:04;10.14;80.33
68912;SHT31;55953;51.650;-0.522;2024-03-22T02:18:32;10.12;80.24
68912;SHT31;55953;51.650;-0.522;2024-03-22T02:21:00;10.10;80.20
68912;SHT31;55953;51.650;-0.522;2024-03-22T02:23:37;10.08;80.24
68912;SHT31;55953;51.650;-0.522;2024-03-22T02:26:07;10.04;80.24
68912;SHT31;55953;51.650;-0.522;2024-03-22T02:28:35;10.02;80.23
68912;SHT31;55953;51.650;-0.522;2024-03-22T02:31:03;10.00;80.28
68912;SHT31;55953;51.650;-0.522;2024-03-22T02:33:32;9.98;80.28
68912;SHT31;55953;51.650;-0.522;2024-03-22T02:35:59;9.95;80.35
68912;SHT31;55953;51.650;-0.522;2024-03-22T02:38:27;9.93;80.35
68912;SHT31;55953;51.650;-0.522;2024-03-22T02:40:55;9.91;80.37
68912;SHT31;55953;51.650;-0.522;2024-03-22T02:43:25;9.89;80.37
68912;SHT31;55953;51.650;-0.522;2024-03-22T02:45:52;9.88;80.32
68912;SHT31;55953;51.650;-0.522;2024-03-22T02:48:20;9.86;80.34
68912;SHT31;55953;51.650;-0.522;2024-03-22T02:50:48;9.85;80.33
68912;SHT31;55953;51.650;-0.522;2024-03-22T02:53:15;9.85;80.29
68912;SHT31;55953;51.650;-0.522;2024-03-22T02:55:43;9.85;80.21
68912;SHT31;55953;51.650;-0.522;2024-03-22T02:58:10;9.85;80.22
68912;SHT31;55953;51.650;-0.522;2024-03-22T03:00:38;9.88;80.14
68912;SHT31;55953;51.650;-0.522;2024-03-22T03:03:06;9.89;80.05
68912;SHT31;55953;51.650;-0.522;2024-03-22T03:05:35;9.90;79.92
68912;SHT31;55953;51.650;-0.522;2024-03-22T03:08:02;9.90;79.81
68912;SHT31;55953;51.650;-0.522;2024-03-22T03:10:30;9.92;79.60
68912;SHT31;55953;51.650;-0.522;2024-03-22T03:12:58;9.93;79.49
68912;SHT31;55953;51.650;-0.522;2024-03-22T03:15:26;9.95;79.39
68912;SHT31;55953;51.650;-0.522;2024-03-22T03:17:53;9.95;79.28
68912;SHT31;55953;51.650;-0.522;2024-03-22T03:20:21;9.94;79.25
68912;SHT31;55953;51.650;-0.522;2024-03-22T03:22:48;9.93;79.20
68912;SHT31;55953;51.650;-0.522;2024-03-22T03:25:16;9.91;79.20
68912;SHT31;55953;51.650;-0.522;2024-03-22T03:27:44;9.93;79.19
68912;SHT31;55953;51.650;-0.522;2024-03-22T03:30:11;9.95;79.12
68912;SHT31;55953;51.650;-0.522;2024-03-22T03:32:39;9.94;79.11
68912;SHT31;55953;51.650;-0.522;2024-03-22T03:35:07;9.96;79.11
68912;SHT31;55953;51.650;-0.522;2024-03-22T03:37:35;9.99;79.11
68912;SHT31;55953;51.650;-0.522;2024-03-22T03:40:03;10.03;79.10
68912;SHT31;55953;51.650;-0.522;2024-03-22T03:42:31;10.06;79.00
68912;SHT31;55953;51.650;-0.522;2024-03-22T03:44:59;10.11;78.92
68912;SHT31;55953;51.650;-0.522;2024-03-22T03:47:26;10.13;78.91
68912;SHT31;55953;51.650;-0.522;2024-03-22T03:49:54;10.15;78.90
68912;SHT31;55953;51.650;-0.522;2024-03-22T03:52:21;10.19;78.76
68912;SHT31;55953;51.650;-0.522;2024-03-22T03:54:49;10.21;78.74
68912;SHT31;55953;51.650;-0.522;2024-03-22T03:57:17;10.25;78.74
68912;SHT31;55953;51.650;-0.522;2024-03-22T03:59:44;10.27;78.56
68912;SHT31;55953;51.650;-0.522;2024-03-22T04:02:12;10.29;78.57
68912;SHT31;55953;51.650;-0.522;2024-03-22T04:04:39;10.32;78.61
68912;SHT31;55953;51.650;-0.522;2024-03-22T04:07:07;10.33;78.37
68912;SHT31;55953;51.650;-0.522;2024-03-22T04:09:34;10.34;78.49
68912;SHT31;55953;51.650;-0.522;2024-03-22T04:12:02;10.34;78.48
68912;SHT31;55953;51.650;-0.522;2024-03-22T04:14:30;10.35;78.52
68912;SHT31;55953;51.650;-0.522;2024-03-22T04:16:57;10.37;78.54
68912;SHT31;55953;51.650;-0.522;2024-03-22T04:19:25;10.38;78.52
68912;SHT31;55953;51.650;-0.522;2024-03-22T04:21:53;10.37;78.61
68912;SHT31;55953;51.650;-0.522;2024-03-22T04:24:20;10.38;78.69
68912;SHT31;55953;51.650;-0.522;2024-03-22T04:26:48;10.40;78.66
68912;SHT31;55953;51.650;-0.522;2024-03-22T04:29:15;10.40;78.79
68912;SHT31;55953;51.650;-0.522;2024-03-22T04:31:43;10.41;78.85
68912;SHT31;55953;51.650;-0.522;2024-03-22T04:34:11;10.43;78.91
68912;SHT31;55953;51.650;-0.522;2024-03-22T04:36:38;10.45;78.92
68912;SHT31;55953;51.650;-0.522;2024-03-22T04:39:06;10.48;78.97
68912;SHT31;55953;51.650;-0.522;2024-03-22T04:41:33;10.49;79.15
68912;SHT31;55953;51.650;-0.522;2024-03-22T04:44:01;10.50;79.33
68912;SHT31;55953;51.650;-0.522;2024-03-22T04:46:29;10.52;79.46
68912;SHT31;55953;51.650;-0.522;2024-03-22T04:48:56;10.52;79.60
68912;SHT31;55953;51.650;-0.522;2024-03-22T04:51:24;10.53;79.69
68912;SHT31;55953;51.650;-0.522;2024-03-22T04:53:51;10.54;79.79
68912;SHT31;55953;51.650;-0.522;2024-03-22T04:56:19;10.54;80.00
68912;SHT31;55953;51.650;-0.522;2024-03-22T04:58:47;10.55;80.08
68912;SHT31;55953;51.650;-0.522;2024-03-22T05:01:14;10.57;80.15
68912;SHT31;55953;51.650;-0.522;2024-03-22T05:03:42;10.59;80.20
68912;SHT31;55953;51.650;-0.522;2024-03-22T05:06:10;10.59;80.42
68912;SHT31;55953;51.650;-0.522;2024-03-22T05:08:38;10.61;80.28
68912;SHT31;55953;51.650;-0.522;2024-03-22T05:11:06;10.63;80.26
68912;SHT31;55953;51.650;-0.522;2024-03-22T05:13:33;10.62;80.28
68912;SHT31;55953;51.650;-0.522;2024-03-22T05:16:01;10.64;80.35
68912;SHT31;55953;51.650;-0.522;2024-03-22T05:18:28;10.66;80.37
68912;SHT31;55953;51.650;-0.522;2024-03-22T05:20:56;10.66;80.49
68912;SHT31;55953;51.650;-0.522;2024-03-22T05:23:24;10.68;80.50
68912;SHT31;55953;51.650;-0.522;2024-03-22T05:25:51;10.69;80.49
68912;SHT31;55953;51.650;-0.522;2024-03-22T05:28:19;10.72;80.47
68912;SHT31;55953;51.650;-0.522;2024-03-22T05:30:47;10.73;80.52
68912;SHT31;55953;51.650;-0.522;2024-03-22T05:33:15;10.76;80.53
68912;SHT31;55953;51.650;-0.522;2024-03-22T05:35:42;10.77;80.60
68912;SHT31;55953;51.650;-0.522;2024-03-22T05:38:10;10.80;80.57
68912;SHT31;55953;51.650;-0.522;2024-03-22T05:40:37;10.82;80.60
68912;SHT31;55953;51.650;-0.522;2024-03-22T05:43:08;10.85;80.58
68912;SHT31;55953;51.650;-0.522;2024-03-22T05:45:35;10.89;80.54
68912;SHT31;55953;51.650;-0.522;2024-03-22T05:48:03;10.88;80.68
68912;SHT31;55953;51.650;-0.522;2024-03-22T05:50:31;10.91;80.69
68912;SHT31;55953;51.650;-0.522;2024-03-22T05:52:59;10.96;80.64
68912;SHT31;55953;51.650;-0.522;2024-03-22T05:55:27;11.00;80.59
68912;SHT31;55953;51.650;-0.522;2024-03-22T05:57:58;11.02;80.57
68912;SHT31;55953;51.650;-0.522;2024-03-22T06:00:26;11.02;80.55
68912;SHT31;55953;51.650;-0.522;2024-03-22T06:02:53;11.02;80.67
68912;SHT31;55953;51.650;-0.522;2024-03-22T06:05:21;11.00;80.87
68912;SHT31;55953;51.650;-0.522;2024-03-22T06:07:49;10.96;81.06
68912;SHT31;55953;51.650;-0.522;2024-03-22T06:10:16;10.97;81.23
68912;SHT31;55953;51.650;-0.522;2024-03-22T06:12:44;10.98;81.30
68912;SHT31;55953;51.650;-0.522;2024-03-22T06:15:14;10.96;81.46
68912;SHT31;55953;51.650;-0.522;2024-03-22T06:17:42;10.94;81.65
68912;SHT31;55953;51.650;-0.522;2024-03-22T06:20:10;10.93;81.87
68912;SHT31;55953;51.650;-0.522;2024-03-22T06:22:39;10.93;81.99
68912;SHT31;55953;51.650;-0.522;2024-03-22T06:25:06;10.91;82.15
68912;SHT31;55953;51.650;-0.522;2024-03-22T06:27:34;10.93;82.20
68912;SHT31;55953;51.650;-0.522;2024-03-22T06:30:02;10.93;82.26
68912;SHT31;55953;51.650;-0.522;2024-03-22T06:32:30;10.95;82.29
68912;SHT31;55953;51.650;-0.522;2024-03-22T06:34:58;10.95;82.49
68912;SHT31;55953;51.650;-0.522;2024-03-22T06:37:25;10.94;82.52
68912;SHT31;55953;51.650;-0.522;2024-03-22T06:39:53;10.95;82.50
68912;SHT31;55953;51.650;-0.522;2024-03-22T06:42:20;10.95;82.52
68912;SHT31;55953;51.650;-0.522;2024-03-22T06:44:48;10.98;82.50
68912;SHT31;55953;51.650;-0.522;2024-03-22T06:47:16;10.97;82.56
68912;SHT31;55953;51.650;-0.522;2024-03-22T06:49:44;10.98;82.59
68912;SHT31;55953;51.650;-0.522;2024-03-22T06:52:11;10.95;82.66
68912;SHT31;55953;51.650;-0.522;2024-03-22T06:54:39;10.96;82.84
68912;SHT31;55953;51.650;-0.522;2024-03-22T06:57:07;10.99;82.82
68912;SHT31;55953;51.650;-0.522;2024-03-22T06:59:34;10.99;82.80
68912;SHT31;55953;51.650;-0.522;2024-03-22T07:02:02;10.98;82.76
68912;SHT31;55953;51.650;-0.522;2024-03-22T07:04:30;11.00;82.83
68912;SHT31;55953;51.650;-0.522;2024-03-22T07:06:57;10.98;82.83
68912;SHT31;55953;51.650;-0.522;2024-03-22T07:09:25;11.01;83.02
68912;SHT31;55953;51.650;-0.522;2024-03-22T07:11:55;11.07;83.01
68912;SHT31;55953;51.650;-0.522;2024-03-22T07:14:23;11.11;82.91
68912;SHT31;55953;51.650;-0.522;2024-03-22T07:16:52;11.13;82.94
68912;SHT31;55953;51.650;-0.522;2024-03-22T07:19:22;11.14;82.96
68912;SHT31;55953;51.650;-0.522;2024-03-22T07:21:50;11.17;82.96
68912;SHT31;55953;51.650;-0.522;2024-03-22T07:24:17;11.19;83.08
68912;SHT31;55953;51.650;-0.522;2024-03-22T07:26:45;11.20;83.06
68912;SHT31;55953;51.650;-0.522;2024-03-22T07:29:13;11.19;83.16
68912;SHT31;55953;51.650;-0.522;2024-03-22T07:31:41;11.24;83.23
68912;SHT31;55953;51.650;-0.522;2024-03-22T07:34:09;11.22;83.05
68912;SHT31;55953;51.650;-0.522;2024-03-22T07:36:37;11.20;82.99
68912;SHT31;55953;51.650;-0.522;2024-03-22T07:39:06;11.20;82.81
68912;SHT31;55953;51.650;-0.522;2024-03-22T07:41:34;11.16;82.74
68912;SHT31;55953;51.650;-0.522;2024-03-22T07:44:02;11.15;82.68
68912;SHT31;55953;51.650;-0.522;2024-03-22T07:46:30;11.15;82.68
68912;SHT31;55953;51.650;-0.522;2024-03-22T07:48:57;11.17;82.74
68912;SHT31;55953;51.650;-0.522;2024-03-22T07:51:25;11.19;82.69
68912;SHT31;55953;51.650;-0.522;2024-03-22T07:53:52;11.18;82.67
68912;SHT31;55953;51.650;-0.522;2024-03-22T07:56:20;11.16;82.71
68912;SHT31;55953;51.650;-0.522;2024-03-22T07:58:47;11.15;82.66
68912;SHT31;55953;51.650;-0.522;2024-03-22T08:01:15;11.15;82.79
68912;SHT31;55953;51.650;-0.522;2024-03-22T08:03:44;11.16;82.66
68912;SHT31;55953;51.650;-0.522;2024-03-22T08:06:12;11.12;82.61
68912;SHT31;55953;51.650;-0.522;2024-03-22T08:08:39;11.06;82.77
68912;SHT31;55953;51.650;-0.522;2024-03-22T08:11:07;11.03;82.86
68912;SHT31;55953;51.650;-0.522;2024-03-22T08:13:35;11.00;82.88
68912;SHT31;55953;51.650;-0.522;2024-03-22T08:16:03;11.01;83.01
68912;SHT31;55953;51.650;-0.522;2024-03-22T08:18:32;11.08;83.13
68912;SHT31;55953;51.650;-0.522;2024-03-22T08:21:02;11.13;82.98
68912;SHT31;55953;51.650;-0.522;2024-03-22T08:23:30;11.15;82.96
68912;SHT31;55953;51.650;-0.522;2024-03-22T08:25:58;11.18;83.03
68912;SHT31;55953;51.650;-0.522;2024-03-22T08:28:25;11.21;83.00
68912;SHT31;55953;51.650;-0.522;2024-03-22T08:31:05;11.27;83.10
68912;SHT31;55953;51.650;-0.522;2024-03-22T08:33:33;11.31;83.08
68912;SHT31;55953;51.650;-0.522;2024-03-22T08:36:00;11.33;83.08
68912;SHT31;55953;51.650;-0.522;2024-03-22T08:38:28;11.41;83.19
68912;SHT31;55953;51.650;-0.522;2024-03-22T08:40:56;11.51;83.08
68912;SHT31;55953;51.650;-0.522;2024-03-22T08:43:23;11.58;82.99
68912;SHT31;55953;51.650;-0.522;2024-03-22T08:45:53;11.69;82.93
68912;SHT31;55953;51.650;-0.522;2024-03-22T08:48:20;11.78;82.86
68912;SHT31;55953;51.650;-0.522;2024-03-22T08:50:48;11.83;82.71
68912;SHT31;55953;51.650;-0.522;2024-03-22T08:53:16;11.90;82.77
68912;SHT31;55953;51.650;-0.522;2024-03-22T08:55:45;12.01;82.64
68912;SHT31;55953;51.650;-0.522;2024-03-22T08:58:14;12.04;82.49
68912;SHT31;55953;51.650;-0.522;2024-03-22T09:00:43;12.03;82.52
68912;SHT31;55953;51.650;-0.522;2024-03-22T09:03:11;12.06;82.57
68912;SHT31;55953;51.650;-0.522;2024-03-22T09:05:39;12.10;82.41
68912;SHT31;55953;51.650;-0.522;2024-03-22T09:08:16;12.11;82.41
68912;SHT31;55953;51.650;-0.522;2024-03-22T09:10:46;12.16;82.36
68912;SHT31;55953;51.650;-0.522;2024-03-22T09:13:14;12.18;82.19
68912;SHT31;55953;51.650;-0.522;2024-03-22T09:15:42;12.14;82.21
68912;SHT31;55953;51.650;-0.522;2024-03-22T09:18:09;12.07;82.22
68912;SHT31;55953;51.650;-0.522;2024-03-22T09:20:37;12.04;82.38
68912;SHT31;55953;51.650;-0.522;2024-03-22T09:23:04;12.10;82.39
68912;SHT31;55953;51.650;-0.522;2024-03-22T09:25:32;12.17;82.27
68912;SHT31;55953;51.650;-0.522;2024-03-22T09:28:01;12.21;82.03
68912;SHT31;55953;51.650;-0.522;2024-03-22T09:30:28;12.15;80.71
68912;SHT31;55953;51.650;-0.522;2024-03-22T09:33:05;12.12;80.49
68912;SHT31;55953;51.650;-0.522;2024-03-22T09:35:34;12.13;80.28
68912;SHT31;55953;51.650;-0.522;2024-03-22T09:38:02;12.19;80.41
68912;SHT31;55953;51.650;-0.522;2024-03-22T09:40:30;12.27;79.72
68912;SHT31;55953;51.650;-0.522;2024-03-22T09:43:01;12.29;79.21
68912;SHT31;55953;51.650;-0.522;2024-03-22T09:45:32;12.32;79.37
68912;SHT31;55953;51.650;-0.522;2024-03-22T09:48:01;12.37;78.43
68912;SHT31;55953;51.650;-0.522;2024-03-22T09:50:29;12.51;78.65
68912;SHT31;55953;51.650;-0.522;2024-03-22T09:52:57;12.56;76.56
68912;SHT31;55953;51.650;-0.522;2024-03-22T09:55:25;12.50;76.55
68912;SHT31;55953;51.650;-0.522;2024-03-22T09:57:54;12.49;77.19
68912;SHT31;55953;51.650;-0.522;2024-03-22T10:00:22;12.53;77.17
68912;SHT31;55953;51.650;-0.522;2024-03-22T10:02:53;12.55;76.96
68912;SHT31;55953;51.650;-0.522;2024-03-22T10:05:21;12.59;77.23
68912;SHT31;55953;51.650;-0.522;2024-03-22T10:07:48;12.56;76.74
68912;SHT31;55953;51.650;-0.522;2024-03-22T10:10:16;12.41;76.15
68912;SHT31;55953;51.650;-0.522;2024-03-22T10:12:45;12.31;76.90
68912;SHT31;55953;51.650;-0.522;2024-03-22T10:15:13;12.29;77.10
68912;SHT31;55953;51.650;-0.522;2024-03-22T10:17:41;12.27;76.74
68912;SHT31;55953;51.650;-0.522;2024-03-22T10:20:12;12.24;76.45
68912;SHT31;55953;51.650;-0.522;2024-03-22T10:22:47;12.14;75.29
68912;SHT31;55953;51.650;-0.522;2024-03-22T10:25:25;11.97;74.40
68912;SHT31;55953;51.650;-0.522;2024-03-22T10:27:57;11.91;74.97
68912;SHT31;55953;51.650;-0.522;2024-03-22T10:30:26;11.90;75.17
68912;SHT31;55953;51.650;-0.522;2024-03-22T10:32:55;11.94;75.11
68912;SHT31;55953;51.650;-0.522;2024-03-22T10:35:24;11.89;74.51
68912;SHT31;55953;51.650;-0.522;2024-03-22T10:37:52;11.85;74.72
68912;SHT31;55953;51.650;-0.522;2024-03-22T10:40:20;11.85;74.18
68912;SHT31;55953;51.650;-0.522;2024-03-22T10:42:49;11.84;73.49
68912;SHT31;55953;51.650;-0.522;2024-03-22T10:45:16;11.86;73.58
68912;SHT31;55953;51.650;-0.522;2024-03-22T10:47:44;11.92;74.14
68912;SHT31;55953;51.650;-0.522;2024-03-22T10:50:14;11.96;72.59
68912;SHT31;55953;51.650;-0.522;2024-03-22T10:52:50;12.01;72.56
68912;SHT31;55953;51.650;-0.522;2024-03-22T10:55:30;12.18;72.95
68912;SHT31;55953;51.650;-0.522;2024-03-22T10:58:01;12.31;72.70
68912;SHT31;55953;51.650;-0.522;2024-03-22T11:00:33;12.43;71.63
68912;SHT31;55953;51.650;-0.522;2024-03-22T11:03:02;12.50;71.44
68912;SHT31;55953;51.650;-0.522;2024-03-22T11:05:31;12.56;70.82
68912;SHT31;55953;51.650;-0.522;2024-03-22T11:08:04;12.51;69.58
68912;SHT31;55953;51.650;-0.522;2024-03-22T11:10:33;12.54;70.72
68912;SHT31;55953;51.650;-0.522;2024-03-22T11:13:02;12.59;70.68
68912;SHT31;55953;51.650;-0.522;2024-03-22T11:15:34;12.65;70.72
68912;SHT31;55953;51.650;-0.522;2024-03-22T11:18:02;12.78;70.99
68912;SHT31;55953;51.650;-0.522;2024-03-22T11:20:30;12.89;70.83
68912;SHT31;55953;51.650;-0.522;2024-03-22T11:22:58;12.94;70.32
68912;SHT31;55953;51.650;-0.522;2024-03-22T11:25:26;13.01;70.62
68912;SHT31;55953;51.650;-0.522;2024-03-22T11:27:54;13.12;70.14
68912;SHT31;55953;51.650;-0.522;2024-03-22T11:30:23;13.18;69.44
68912;SHT31;55953;51.650;-0.522;2024-03-22T11:32:52;13.20;69.31
68912;SHT31;55953;51.650;-0.522;2024-03-22T11:35:20;13.20;68.11
68912;SHT31;55953;51.650;-0.522;2024-03-22T11:37:47;13.21;69.25
68912;SHT31;55953;51.650;-0.522;2024-03-22T11:40:16;13.26;68.57
68912;SHT31;55953;51.650;-0.522;2024-03-22T11:42:48;13.26;68.87
68912;SHT31;55953;51.650;-0.522;2024-03-22T11:45:19;13.22;67.91
68912;SHT31;55953;51.650;-0.522;2024-03-22T11:47:48;13.21;68.06
68912;SHT31;55953;51.650;-0.522;2024-03-22T11:50:16;13.25;68.64
68912;SHT31;55953;51.650;-0.522;2024-03-22T11:52:44;13.20;67.08
68912;SHT31;55953;51.650;-0.522;2024-03-22T11:55:14;13.16;68.03
68912;SHT31;55953;51.650;-0.522;2024-03-22T11:57:47;13.14;68.07
68912;SHT31;55953;51.650;-0.522;2024-03-22T12:00:17;13.09;67.16
68912;SHT31;55953;51.650;-0.522;2024-03-22T12:03:06;13.02;65.30
68912;SHT31;55953;51.650;-0.522;2024-03-22T12:05:34;13.03;66.86
68912;SHT31;55953;51.650;-0.522;2024-03-22T12:08:01;13.08;66.63
68912;SHT31;55953;51.650;-0.522;2024-03-22T12:10:29;13.09;65.84
68912;SHT31;55953;51.650;-0.522;2024-03-22T12:12:57;13.10;66.40
68912;SHT31;55953;51.650;-0.522;2024-03-22T12:15:25;13.04;65.14
68912;SHT31;55953;51.650;-0.522;2024-03-22T12:17:53;13.02;65.88
68912;SHT31;55953;51.650;-0.522;2024-03-22T12:20:21;13.03;65.39
68912;SHT31;55953;51.650;-0.522;2024-03-22T12:22:49;13.02;65.32
68912;SHT31;55953;51.650;-0.522;2024-03-22T12:25:16;13.05;65.39
68912;SHT31;55953;51.650;-0.522;2024-03-22T12:27:46;13.04;64.28
68912;SHT31;55953;51.650;-0.522;2024-03-22T12:30:14;12.95;63.22
68912;SHT31;55953;51.650;-0.522;2024-03-22T12:32:41;12.94;64.97
68912;SHT31;55953;51.650;-0.522;2024-03-22T12:35:12;12.90;62.93
68912;SHT31;55953;51.650;-0.522;2024-03-22T12:37:40;12.83;63.96
68912;SHT31;55953;51.650;-0.522;2024-03-22T12:40:07;12.79;63.11
68912;SHT31;55953;51.650;-0.522;2024-03-22T12:42:36;12.80;63.52
68912;SHT31;55953;51.650;-0.522;2024-03-22T12:45:04;12.78;63.03
68912;SHT31;55953;51.650;-0.522;2024-03-22T12:47:34;12.75;62.47
68912;SHT31;55953;51.650;-0.522;2024-03-22T12:50:02;12.69;61.44
68912;SHT31;55953;51.650;-0.522;2024-03-22T12:52:31;12.64;62.14
68912;SHT31;55953;51.650;-0.522;2024-03-22T12:55:00;12.61;61.84
68912;SHT31;55953;51.650;-0.522;2024-03-22T12:57:28;12.58;61.24
68912;SHT31;55953;51.650;-0.522;2024-03-22T12:59:56;12.53;61.31
68912;SHT31;55953;51.650;-0.522;2024-03-22T13:02:25;12.44;60.52
68912;SHT31;55953;51.650;-0.522;2024-03-22T13:04:53;12.45;61.75
68912;SHT31;55953;51.650;-0.522;2024-03-22T13:07:21;12.47;62.33
68912;SHT31;55953;51.650;-0.522;2024-03-22T13:09:48;12.56;62.57
68912;SHT31;55953;51.650;-0.522;2024-03-22T13:12:17;12.60;61.80
68912;SHT31;55953;51.650;-0.522;2024-03-22T13:14:45;12.59;60.83
68912;SHT31;55953;51.650;-0.522;2024-03-22T13:17:13;12.56;61.45
68912;SHT31;55953;51.650;-0.522;2024-03-22T13:19:42;12.57;62.24
68912;SHT31;55953;51.650;-0.522;2024-03-22T13:22:09;12.65;62.32
68912;SHT31;55953;51.650;-0.522;2024-03-22T13:24:37;12.65;61.70
68912;SHT31;55953;51.650;-0.522;2024-03-22T13:27:05;12.59;61.24
68912;SHT31;55953;51.650;-0.522;2024-03-22T13:29:32;12.52;61.66
68912;SHT31;55953;51.650;-0.522;2024-03-22T13:32:00;12.44;61.88
68912;SHT31;55953;51.650;-0.522;2024-03-22T13:34:28;12.43;62.46
68912;SHT31;55953;51.650;-0.522;2024-03-22T13:36:56;12.44;62.33
68912;SHT31;55953;51.650;-0.522;2024-03-22T13:39:23;12.44;62.58
68912;SHT31;55953;51.650;-0.522;2024-03-22T13:41:51;12.39;61.24
68912;SHT31;55953;51.650;-0.522;2024-03-22T13:44:18;12.40;61.34
68912;SHT31;55953;51.650;-0.522;2024-03-22T13:46:46;12.40;60.42
68912;SHT31;55953;51.650;-0.522;2024-03-22T13:49:17;12.33;59.91
68912;SHT31;55953;51.650;-0.522;2024-03-22T13:51:47;12.31;60.61
68912;SHT31;55953;51.650;-0.522;2024-03-22T13:54:15;12.41;61.27
68912;SHT31;55953;51.650;-0.522;2024-03-22T13:56:44;12.47;59.73
68912;SHT31;55953;51.650;-0.522;2024-03-22T13:59:11;12.47;58.99
68912;SHT31;55953;51.650;-0.522;2024-03-22T14:01:41;12.48;58.60
68912;SHT31;55953;51.650;-0.522;2024-03-22T14:04:12;12.54;59.07
68912;SHT31;55953;51.650;-0.522;2024-03-22T14:06:42;12.63;59.77
68912;SHT31;55953;51.650;-0.522;2024-03-22T14:09:10;12.68;59.14
68912;SHT31;55953;51.650;-0.522;2024-03-22T14:11:40;12.78;59.95
68912;SHT31;55953;51.650;-0.522;2024-03-22T14:14:10;12.89;60.23
68912;SHT31;55953;51.650;-0.522;2024-03-22T14:16:40;12.94;59.25
68912;SHT31;55953;51.650;-0.522;2024-03-22T14:19:08;12.95;59.10
68912;SHT31;55953;51.650;-0.522;2024-03-22T14:21:36;12.94;59.53
68912;SHT31;55953;51.650;-0.522;2024-03-22T14:24:08;12.95;59.41
68912;SHT31;55953;51.650;-0.522;2024-03-22T14:26:35;13.06;59.67
68912;SHT31;55953;51.650;-0.522;2024-03-22T14:29:09;13.15;60.50
68912;SHT31;55953;51.650;-0.522;2024-03-22T14:31:37;13.25;58.97
68912;SHT31;55953;51.650;-0.522;2024-03-22T14:34:06;13.31;59.11
68912;SHT31;55953;51.650;-0.522;2024-03-22T14:36:34;13.38;58.22
68912;SHT31;55953;51.650;-0.522;2024-03-22T14:39:02;13.36;57.78
68912;SHT31;55953;51.650;-0.522;2024-03-22T14:41:32;13.36;56.64
68912;SHT31;55953;51.650;-0.522;2024-03-22T14:44:00;13.34;57.38
68912;SHT31;55953;51.650;-0.522;2024-03-22T14:46:28;13.33;56.90
68912;SHT31;55953;51.650;-0.522;2024-03-22T14:48:56;13.32;57.02
68912;SHT31;55953;51.650;-0.522;2024-03-22T14:51:24;13.41;58.57
68912;SHT31;55953;51.650;-0.522;2024-03-22T14:53:53;13.54;57.73
68912;SHT31;55953;51.650;-0.522;2024-03-22T14:56:21;13.54;57.16
68912;SHT31;55953;51.650;-0.522;2024-03-22T14:58:49;13.53;57.52
68912;SHT31;55953;51.650;-0.522;2024-03-22T15:01:17;13.61;58.21
68912;SHT31;55953;51.650;-0.522;2024-03-22T15:03:46;13.63;57.50
68912;SHT31;55953;51.650;-0.522;2024-03-22T15:06:13;13.55;57.73
68912;SHT31;55953;51.650;-0.522;2024-03-22T15:08:41;13.55;58.28
68912;SHT31;55953;51.650;-0.522;2024-03-22T15:11:09;13.52;57.26
68912;SHT31;55953;51.650;-0.522;2024-03-22T15:13:36;13.47;56.42
68912;SHT31;55953;51.650;-0.522;2024-03-22T15:16:04;13.45;54.89
68912;SHT31;55953;51.650;-0.522;2024-03-22T15:18:32;13.30;53.14
68912;SHT31;55953;51.650;-0.522;2024-03-22T15:20:59;13.19;53.55
68912;SHT31;55953;51.650;-0.522;2024-03-22T15:23:27;13.19;55.05